• Join FlightAware (Why Join?)
  • Login
  • US Flag 
Rudolph Flight #1: Arrived! 
05:52PM EST


 

Airport Tracker/Info


-or-


 

Live Flight TrackerFlight Track Log ✈ UAL4462 ✈ 12-Oct-2013 ✈ CYXE - KDEN

Flight Track Log - Related Links

Times and Time Zones

All times are in EDT time to prevent confusion due to time zone crossing. See the UAL4462 flight status page for this flight to view local times or setup timezone preferences in your user account.

Time Position Orientation Groundspeed Altitude Reporting Facility
EDT Latitude Longitude Course Direction KTS MPH feet Rate Location/Type
09:02AM 52.1667 -106.7833 189° South 160 184 2,800  Level Winnipeg Center
09:03AM 52.1667 -106.8667 270° West 200 230 5,000 2,220 Climbing Winnipeg Center
09:04AM 52.1000 -106.9000 197° South 250 288 7,300 2,100 Climbing Winnipeg Center
09:05AM 51.7208 -106.6071 197° South  Level Estimated
09:05AM 52.0167 -106.9500 200° South 290 334 9,300  Level Winnipeg Center
09:06AM 51.6082 -106.5842 203° Southwest  Level Estimated
09:06AM 51.9500 -106.9833 197° South 310 357 11,200  Level Winnipeg Center
09:07AM 51.4896 -106.6145 189° South  Level FlightAware Approximate
09:07AM 51.8667 -107.0167 194° South 350 403 12,300  Level Winnipeg Center
09:08AM 51.7500 -107.0667 195° South 380 437 13,400 1,260 Climbing Winnipeg Center
09:09AM 51.6500 -107.1333 202° Southwest 390 449 14,900 1,440 Climbing Winnipeg Center
09:10AM 51.5500 -107.1667 192° South 400 460 16,300 1,440 Climbing Winnipeg Center
09:11AM 51.4167 -107.2167 193° South 400 460 17,800 1,440 Climbing Winnipeg Center
09:12AM 51.3333 -107.2833 207° Southwest 400 460 19,200 1,380 Climbing Winnipeg Center
09:13AM 51.2333 -107.3000 186° South 400 460 20,600 1,440 Climbing Winnipeg Center
09:14AM 51.1000 -107.3667 197° South 400 460 22,100 1,440 Climbing Winnipeg Center
09:15AM 51.0167 -107.4167 201° Southwest 400 460 23,500 1,440 Climbing Winnipeg Center
09:16AM 50.9000 -107.4500 190° South 390 449 25,000 1,440 Climbing Winnipeg Center
09:17AM 50.8000 -107.5000 198° South 390 449 26,400 1,440 Climbing Winnipeg Center
09:18AM 50.7000 -107.5333 192° South 380 437 27,900 1,440 Climbing Winnipeg Center
09:19AM 50.6000 -107.5833 198° South 370 426 29,300 1,440 Climbing Winnipeg Center
09:20AM 50.4833 -107.6167 190° South 370 426 30,800 1,440 Climbing Winnipeg Center
09:21AM 50.4000 -107.6833 207° Southwest 360 414 32,200 1,260 Climbing Winnipeg Center
09:22AM 50.3167 -107.7167 194° South 350 403 33,400 900 Climbing Winnipeg Center
09:23AM 50.2167 -107.7333 186° South 360 414 34,000 600 Climbing Winnipeg Center
09:24AM 50.1167 -107.7333 180° South 370 426 34,600 480 Climbing Winnipeg Center
09:25AM 49.9833 -107.7333 180° South 380 437 35,000 180 Climbing Winnipeg Center
09:26AM 49.8833 -107.7667 192° South 400 460 35,000  Level Winnipeg Center
09:27AM 49.7667 -107.8000 190° South 420 483 35,000  Level Winnipeg Center
09:28AM 49.6500 -107.7833 175° South 440 506 35,000  Level Winnipeg Center
09:29AM 49.5333 -107.8167 191° South 450 518 35,000  Level Winnipeg Center
09:30AM 49.4000 -107.8167 180° South 450 518 35,000  Level Winnipeg Center
09:31AM 49.2667 -107.8333 185° South 450 518 35,000  Level Winnipeg Center
09:32AM 49.1500 -107.8667 191° South 450 518 35,000  Level Winnipeg Center
09:33AM 49.0167 -107.8500 175° South 440 506 35,000  Level Winnipeg Center
09:34AM 48.9000 -107.8833 191° South 440 506 35,000  Level Winnipeg Center
09:35AM 48.7833 -107.8833 180° South 440 506 35,000  Level Winnipeg Center
09:35AM 48.7533 -107.8667 160° South 440 506 35,000  Level Salt Lake Center
09:36AM 48.6322 -107.8811 185° South 439 505 35,000  Level Salt Lake Center
09:37AM 48.5092 -107.8931 184° South 441 507 35,000  Level Salt Lake Center
09:38AM 48.3900 -107.9072 185° South 436 502 35,000  Level Salt Lake Center
09:39AM 48.2686 -107.9194 184° South 436 502 35,000  Level Salt Lake Center
09:40AM 48.1225 -107.9344 184° South 437 503 35,000  Level Salt Lake Center
09:41AM 48.0036 -107.9481 184° South 433 498 35,000  Level Salt Lake Center
09:42AM 47.8839 -107.9611 184° South 432 497 35,000  Level Salt Lake Center
09:43AM 47.7636 -107.9731 184° South 433 498 35,000  Level Salt Lake Center
09:44AM 47.6436 -107.9861 184° South 433 498 35,000  Level Salt Lake Center
09:45AM 47.5231 -107.9978 184° South 433 498 35,000  Level Salt Lake Center
09:46AM 47.4056 -107.9653 169° South 432 497 35,000  Level Salt Lake Center
09:47AM 47.2858 -107.9197 166° South 441 507 35,000  Level Salt Lake Center
09:48AM 47.1672 -107.8783 167° South 440 506 35,000  Level Salt Lake Center
09:49AM 47.0497 -107.8333 165° South 439 505 35,000  Level Salt Lake Center
09:50AM 46.9317 -107.7925 167° South 438 504 35,000  Level Salt Lake Center
09:51AM 46.8139 -107.7483 166° South 438 504 35,000  Level Salt Lake Center
09:52AM 46.6953 -107.7075 167° South 438 504 35,000  Level Salt Lake Center
09:53AM 46.5756 -107.6625 166° South 443 510 35,000  Level Salt Lake Center
09:54AM 46.4333 -107.6108 166° South 440 506 35,000  Level Salt Lake Center
09:55AM 46.3158 -107.5694 166° South 436 502 35,000  Level Salt Lake Center
09:56AM 46.1978 -107.5283 166° South 436 502 35,000  Level Salt Lake Center
09:57AM 46.0806 -107.4861 166° South 433 498 35,000  Level Salt Lake Center
09:58AM 45.9656 -107.4458 166° South 426 490 35,000  Level Salt Lake Center
09:59AM 45.8508 -107.4061 166° South 424 488 35,000  Level Salt Lake Center
10:01AM 45.7361 -107.3658 166° South 424 488 35,000  Level Salt Lake Center
10:02AM 45.6208 -107.3253 166° South 426 490 35,000  Level Salt Lake Center
10:03AM 45.5058 -107.2861 167° South 425 489 35,000  Level Salt Lake Center
10:04AM 45.3903 -107.2525 168° South 422 486 35,000  Level Salt Lake Center
10:05AM 45.2828 -107.2956 196° South 404 465 35,000  Level Salt Lake Center
10:06AM 45.1675 -107.2706 171° South 419 482 35,000  Level Salt Lake Center
10:07AM 45.0503 -107.2364 168° South 427 491 35,000  Level Salt Lake Center
10:08AM 44.9347 -107.2011 168° South 424 488 35,000  Level Salt Lake Center
10:09AM 44.8197 -107.1989 179° South 421 484 35,000  Level Salt Lake Center
10:10AM 44.7314 -107.2831 214° Southwest 387 445 35,000  Level Salt Lake Center
10:11AM 44.6311 -107.3897 217° Southwest 375 432 35,000  Level Salt Lake Center
10:12AM 44.5494 -107.4783 218° Southwest 369 425 35,000  Level Salt Lake Center
10:13AM 44.4669 -107.5675 218° Southwest 372 428 35,000  Level Salt Lake Center
10:14AM 44.3844 -107.6575 218° Southwest 374 430 35,000  Level Salt Lake Center
10:15AM 44.2814 -107.6992 196° South 399 459 35,000  Level Salt Lake Center
10:16AM 44.1728 -107.6458 161° South 417 480 35,000  Level Salt Lake Center
10:17AM 44.0619 -107.5864 159° South 426 490 35,000  Level Salt Lake Center
10:18AM 43.9508 -107.5267 159° South 430 495 35,000  Level Salt Lake Center
10:19AM 43.8386 -107.4672 159° South 431 496 35,000  Level Salt Lake Center
10:20AM 43.7267 -107.4089 159° South 431 496 35,000  Level Salt Lake Center
10:21AM 43.6169 -107.3478 158° South 429 494 35,000  Level Salt Lake Center
10:22AM 43.5061 -107.2903 159° South 427 491 35,000  Level Salt Lake Center
10:23AM 43.3725 -107.2217 160° South 429 494 35,000  Level Salt Lake Center
10:24AM 43.2622 -107.1617 158° South 429 494 35,000  Level Salt Lake Center
10:25AM 43.1478 -107.1019 159° South 438 504 35,000  Level Salt Lake Center
10:26AM 43.0303 -107.0417 159° South 449 517 35,000  Level Salt Lake Center
10:27AM 42.9075 -106.9772 159° South 460 529 35,000  Level Salt Lake Center
10:28AM 42.7825 -106.9128 159° South 464 534 35,000  Level Salt Lake Center
10:29AM 42.6678 -106.8542 159° South 461 531 35,000  Level Salt Lake Center
10:30AM 42.5356 -106.7856 159° South 457 526 35,000  Level Salt Lake Center
10:31AM 42.4208 -106.7739 176° South 433 498 35,000  Level Salt Lake Center
10:32AM 42.2983 -106.7842 184° South 420 483 35,000  Level Salt Lake Center
10:33AM 42.1872 -106.7928 183° South 417 480 35,000  Level Salt Lake Center
10:34AM 42.0581 -106.7697 172° South 431 496 35,000  Level Salt Lake Center
10:35AM 41.9581 -106.6783 146° Southeast 451 519 35,000  Level Salt Lake Center
10:37AM 41.8247 -106.5544 145° Southeast 453 521 35,000  Level Denver Center
10:38AM 41.7033 -106.4414 145° Southeast 455 524 35,000 -60 Level Denver Center
10:39AM 41.6047 -106.3486 145° Southeast 455 524 34,900 -540 Descending Denver Center
10:40AM 41.5053 -106.2572 145° Southeast 453 521 34,000 -1,020 Descending Denver Center
10:41AM 41.3850 -106.1483 146° Southeast 464 534 32,900 -1,020 Descending Denver Center
10:42AM 41.2822 -106.0539 145° Southeast 468 539 32,000 -1,020 Descending Denver Center
10:43AM 41.1614 -105.9450 146° Southeast 471 542 30,900 -960 Descending Denver Center
10:44AM 41.0586 -105.8503 145° Southeast 471 542 30,100 -420 Descending Denver Center
10:45AM 40.9589 -105.7606 146° Southeast 448 516 30,100  Level Denver Center
10:46AM 40.8397 -105.6536 146° Southeast 433 498 30,100 -900 Level Denver Center
10:47AM 40.7381 -105.5617 146° Southeast 441 507 28,300 -2,100 Descending Denver Center
10:48AM 40.6372 -105.4728 146° Southeast 437 503 25,800 -2,400 Descending Denver Center
10:49AM 40.5589 -105.3592 132° Southeast 424 488 23,500 -1,980 Descending Denver Center
10:50AM 40.4933 -105.2408 126° Southeast 404 465 21,800 -1,860 Descending Denver Center
10:51AM 40.3994 -105.1625 148° Southeast 348 400 19,700 -1,920 Descending Denver Center
10:52AM 40.3194 -105.0983 149° Southeast 338 389 17,900 -1,680 Descending Denver Center
10:53AM 40.2358 -105.0322 149° Southeast 327 376 16,300 -1,620 Descending Denver Center
10:54AM 40.1606 -104.9717 148° Southeast 318 366 14,600 -1,620 Descending Denver Center
10:55AM 40.0872 -104.9133 149° Southeast 312 359 13,000 -960 Descending Denver Center
10:56AM 40.0125 -104.8536 149° Southeast 295 339 12,700 -780 Descending Denver Center
10:57AM 39.9378 -104.8069 154° Southeast 296 341 11,500 -900 Descending Denver Center
10:58AM 39.8622 -104.8075 180° South 254 292 10,900 -300 Descending Denver Center
10:59AM 39.7911 -104.8089 181° South 240 276 11,000  Climbing Denver Center
11:00AM 39.7239 -104.8108 181° South 243 280 11,000  Level Denver Center
11:01AM 39.6625 -104.8122 181° South 228 262 11,000 -120 Level Denver Center
11:02AM 39.6008 -104.8136 181° South 227 261 10,800 -480 Descending Denver Center
11:03AM 39.5233 -104.8172 182° South 237 273 10,000 -360 Descending Denver Center
11:04AM 39.4597 -104.8183 181° South 232 267 10,100  Climbing Denver Center
11:05AM 39.4247 -104.7617 129° Southeast 250 288 10,000  Descending Denver Center
11:06AM 39.4594 -104.7078 50° Northeast 219 252 10,100  Climbing Denver Center
11:08AM 39.5186 -104.6917 12° North 217 250 10,000  Descending Denver Center
11:09AM 39.5836 -104.6906 North 197 227 10,100 -60 Climbing Denver Center
11:10AM 39.6358 -104.6900 360° North 203 234 9,900 -660 Descending Denver Center
11:11AM 39.6900 -104.6892 North 197 227 8,800 -1,140 Descending Denver Center
11:12AM 39.7533 -104.6883 North 190 219 7,600 -1,020 Descending Denver Center
11:13AM 39.7969 -104.6881 360° North 162 186 6,800 -840 Descending Denver Center
11:14AM 39.8392 -104.6872 North 154 177 5,900 -720 Descending Denver Center
11:15AM 39.8789 -104.6872 360° North 139 160 5,400 -540 Descending Denver Center